sensor_id;sensor_type;location;lat;lon;timestamp;P1;durP1;ratioP1;P2;durP2;ratioP2
69057;SDS011;56128;37.534;-122.308;2022-11-18T00:00:30;22.77;;;12.63;;
69057;SDS011;56128;37.534;-122.308;2022-11-18T00:02:56;22.83;;;12.43;;
69057;SDS011;56128;37.534;-122.308;2022-11-18T00:05:22;21.95;;;12.00;;
69057;SDS011;56128;37.534;-122.308;2022-11-18T00:07:47;25.10;;;12.25;;
69057;SDS011;56128;37.534;-122.308;2022-11-18T00:10:13;22.95;;;12.30;;
69057;SDS011;56128;37.534;-122.308;2022-11-18T00:12:39;22.70;;;12.52;;
69057;SDS011;56128;37.534;-122.308;2022-11-18T00:15:23;20.10;;;11.93;;
69057;SDS011;56128;37.534;-122.308;2022-11-18T00:17:48;22.92;;;11.73;;
69057;SDS011;56128;37.534;-122.308;2022-11-18T00:20:14;22.38;;;11.82;;
69057;SDS011;56128;37.534;-122.308;2022-11-18T00:22:40;26.27;;;11.75;;
69057;SDS011;56128;37.534;-122.308;2022-11-18T00:25:06;22.55;;;11.38;;
69057;SDS011;56128;37.534;-122.308;2022-11-18T00:27:32;20.55;;;10.52;;
69057;SDS011;56128;37.534;-122.308;2022-11-18T00:29:57;19.73;;;11.18;;
69057;SDS011;56128;37.534;-122.308;2022-11-18T00:32:23;21.77;;;11.15;;
69057;SDS011;56128;37.534;-122.308;2022-11-18T00:34:49;18.75;;;10.93;;
69057;SDS011;56128;37.534;-122.308;2022-11-18T00:37:15;19.73;;;11.27;;
69057;SDS011;56128;37.534;-122.308;2022-11-18T00:39:40;17.77;;;10.32;;
69057;SDS011;56128;37.534;-122.308;2022-11-18T00:42:06;18.55;;;10.52;;
69057;SDS011;56128;37.534;-122.308;2022-11-18T00:44:50;17.88;;;9.43;;
69057;SDS011;56128;37.534;-122.308;2022-11-18T00:47:16;15.48;;;9.15;;
69057;SDS011;56128;37.534;-122.308;2022-11-18T00:49:41;17.10;;;9.15;;
69057;SDS011;56128;37.534;-122.308;2022-11-18T00:52:07;18.80;;;8.30;;
69057;SDS011;56128;37.534;-122.308;2022-11-18T00:54:33;15.07;;;7.65;;
69057;SDS011;56128;37.534;-122.308;2022-11-18T00:56:59;13.60;;;6.85;;
69057;SDS011;56128;37.534;-122.308;2022-11-18T00:59:24;14.02;;;6.85;;
69057;SDS011;56128;37.534;-122.308;2022-11-18T01:01:50;13.52;;;6.75;;
69057;SDS011;56128;37.534;-122.308;2022-11-18T01:04:16;14.25;;;6.60;;
69057;SDS011;56128;37.534;-122.308;2022-11-18T01:06:42;13.70;;;6.93;;
69057;SDS011;56128;37.534;-122.308;2022-11-18T01:09:07;13.50;;;7.00;;
69057;SDS011;56128;37.534;-122.308;2022-11-18T01:11:33;12.63;;;6.47;;
69057;SDS011;56128;37.534;-122.308;2022-11-18T01:14:17;11.10;;;6.18;;
69057;SDS011;56128;37.534;-122.308;2022-11-18T01:16:43;22.30;;;10.60;;
69057;SDS011;56128;37.534;-122.308;2022-11-18T01:19:15;16.42;;;9.82;;
69057;SDS011;56128;37.534;-122.308;2022-11-18T01:21:41;20.63;;;9.77;;
69057;SDS011;56128;37.534;-122.308;2022-11-18T01:24:06;20.77;;;10.13;;
69057;SDS011;56128;37.534;-122.308;2022-11-18T01:26:32;23.38;;;11.45;;
69057;SDS011;56128;37.534;-122.308;2022-11-18T01:28:58;23.23;;;11.40;;
69057;SDS011;56128;37.534;-122.308;2022-11-18T01:31:24;22.08;;;11.98;;
69057;SDS011;56128;37.534;-122.308;2022-11-18T01:33:49;20.02;;;9.68;;
69057;SDS011;56128;37.534;-122.308;2022-11-18T01:38:41;14.18;;;7.53;;
69057;SDS011;56128;37.534;-122.308;2022-11-18T01:41:07;12.00;;;6.43;;
69057;SDS011;56128;37.534;-122.308;2022-11-18T01:43:46;11.50;;;6.32;;
69057;SDS011;56128;37.534;-122.308;2022-11-18T01:46:12;10.07;;;5.90;;
69057;SDS011;56128;37.534;-122.308;2022-11-18T01:48:37;9.38;;;5.45;;
69057;SDS011;56128;37.534;-122.308;2022-11-18T01:51:05;11.20;;;6.00;;
69057;SDS011;56128;37.534;-122.308;2022-11-18T01:53:32;10.73;;;6.30;;
69057;SDS011;56128;37.534;-122.308;2022-11-18T01:55:59;10.52;;;5.68;;
69057;SDS011;56128;37.534;-122.308;2022-11-18T01:58:30;10.55;;;5.57;;
69057;SDS011;56128;37.534;-122.308;2022-11-18T02:00:57;10.85;;;5.28;;
69057;SDS011;56128;37.534;-122.308;2022-11-18T02:03:23;11.15;;;5.50;;
69057;SDS011;56128;37.534;-122.308;2022-11-18T02:05:49;10.57;;;5.40;;
69057;SDS011;56128;37.534;-122.308;2022-11-18T02:08:16;12.55;;;5.80;;
69057;SDS011;56128;37.534;-122.308;2022-11-18T02:10:42;10.05;;;4.78;;
69057;SDS011;56128;37.534;-122.308;2022-11-18T02:13:08;12.40;;;5.57;;
69057;SDS011;56128;37.534;-122.308;2022-11-18T02:18:09;10.30;;;5.63;;
69057;SDS011;56128;37.534;-122.308;2022-11-18T02:20:43;8.98;;;5.35;;
69057;SDS011;56128;37.534;-122.308;2022-11-18T02:23:22;9.85;;;4.50;;
69057;SDS011;56128;37.534;-122.308;2022-11-18T02:28:47;8.77;;;4.78;;
69057;SDS011;56128;37.534;-122.308;2022-11-18T02:38:41;8.43;;;4.25;;
69057;SDS011;56128;37.534;-122.308;2022-11-18T02:41:08;10.93;;;5.43;;
69057;SDS011;56128;37.534;-122.308;2022-11-18T02:43:37;8.85;;;4.95;;
69057;SDS011;56128;37.534;-122.308;2022-11-18T02:46:08;8.10;;;4.65;;
69057;SDS011;56128;37.534;-122.308;2022-11-18T02:48:36;12.98;;;5.70;;
69057;SDS011;56128;37.534;-122.308;2022-11-18T02:51:04;13.18;;;6.05;;
69057;SDS011;56128;37.534;-122.308;2022-11-18T02:53:32;10.02;;;5.05;;
69057;SDS011;56128;37.534;-122.308;2022-11-18T02:55:58;10.07;;;5.00;;
69057;SDS011;56128;37.534;-122.308;2022-11-18T02:58:25;8.80;;;4.57;;
69057;SDS011;56128;37.534;-122.308;2022-11-18T03:00:57;9.18;;;4.85;;
69057;SDS011;56128;37.534;-122.308;2022-11-18T03:03:25;8.75;;;4.80;;
69057;SDS011;56128;37.534;-122.308;2022-11-18T03:06:00;8.77;;;4.75;;
69057;SDS011;56128;37.534;-122.308;2022-11-18T03:08:27;10.05;;;4.85;;
69057;SDS011;56128;37.534;-122.308;2022-11-18T03:11:10;9.10;;;4.82;;
69057;SDS011;56128;37.534;-122.308;2022-11-18T03:16:28;9.32;;;4.25;;
69057;SDS011;56128;37.534;-122.308;2022-11-18T03:21:51;10.60;;;4.40;;
69057;SDS011;56128;37.534;-122.308;2022-11-18T03:24:24;8.68;;;3.85;;
69057;SDS011;56128;37.534;-122.308;2022-11-18T03:26:55;9.90;;;4.57;;
69057;SDS011;56128;37.534;-122.308;2022-11-18T03:29:31;7.43;;;4.03;;
69057;SDS011;56128;37.534;-122.308;2022-11-18T03:32:02;8.13;;;4.13;;
69057;SDS011;56128;37.534;-122.308;2022-11-18T03:34:29;9.18;;;4.40;;
69057;SDS011;56128;37.534;-122.308;2022-11-18T03:36:57;7.85;;;4.22;;
69057;SDS011;56128;37.534;-122.308;2022-11-18T03:39:24;8.77;;;4.50;;
69057;SDS011;56128;37.534;-122.308;2022-11-18T03:41:52;9.60;;;4.18;;
69057;SDS011;56128;37.534;-122.308;2022-11-18T03:44:21;11.38;;;4.53;;
69057;SDS011;56128;37.534;-122.308;2022-11-18T03:47:05;7.60;;;3.92;;
69057;SDS011;56128;37.534;-122.308;2022-11-18T03:49:35;9.18;;;4.18;;
69057;SDS011;56128;37.534;-122.308;2022-11-18T03:52:05;8.40;;;3.88;;
69057;SDS011;56128;37.534;-122.308;2022-11-18T03:54:32;7.05;;;3.90;;
69057;SDS011;56128;37.534;-122.308;2022-11-18T03:57:01;7.75;;;4.10;;
69057;SDS011;56128;37.534;-122.308;2022-11-18T03:59:37;7.13;;;4.10;;
69057;SDS011;56128;37.534;-122.308;2022-11-18T04:04:34;6.40;;;3.53;;
69057;SDS011;56128;37.534;-122.308;2022-11-18T04:07:01;7.68;;;3.80;;
69057;SDS011;56128;37.534;-122.308;2022-11-18T04:09:29;6.13;;;3.50;;
69057;SDS011;56128;37.534;-122.308;2022-11-18T04:11:59;8.70;;;3.90;;
69057;SDS011;56128;37.534;-122.308;2022-11-18T04:14:27;7.82;;;4.07;;
69057;SDS011;56128;37.534;-122.308;2022-11-18T04:16:53;8.18;;;3.65;;
69057;SDS011;56128;37.534;-122.308;2022-11-18T04:19:19;6.57;;;3.60;;
69057;SDS011;56128;37.534;-122.308;2022-11-18T04:21:45;8.20;;;3.35;;
69057;SDS011;56128;37.534;-122.308;2022-11-18T04:24:12;7.53;;;3.50;;
69057;SDS011;56128;37.534;-122.308;2022-11-18T04:26:37;8.23;;;3.45;;
69057;SDS011;56128;37.534;-122.308;2022-11-18T04:29:03;7.68;;;3.58;;
69057;SDS011;56128;37.534;-122.308;2022-11-18T04:31:29;6.35;;;3.38;;
69057;SDS011;56128;37.534;-122.308;2022-11-18T04:33:55;8.00;;;3.78;;
69057;SDS011;56128;37.534;-122.308;2022-11-18T04:36:20;6.57;;;3.53;;
69057;SDS011;56128;37.534;-122.308;2022-11-18T04:38:46;8.30;;;3.58;;
69057;SDS011;56128;37.534;-122.308;2022-11-18T04:41:12;5.97;;;3.30;;
69057;SDS011;56128;37.534;-122.308;2022-11-18T04:43:37;8.25;;;3.50;;
69057;SDS011;56128;37.534;-122.308;2022-11-18T04:46:03;5.53;;;3.20;;
69057;SDS011;56128;37.534;-122.308;2022-11-18T04:48:29;7.63;;;3.60;;
69057;SDS011;56128;37.534;-122.308;2022-11-18T04:51:01;8.93;;;3.47;;
69057;SDS011;56128;37.534;-122.308;2022-11-18T04:53:27;6.03;;;3.00;;
69057;SDS011;56128;37.534;-122.308;2022-11-18T04:55:53;7.13;;;3.50;;
69057;SDS011;56128;37.534;-122.308;2022-11-18T04:58:19;6.97;;;3.55;;
69057;SDS011;56128;37.534;-122.308;2022-11-18T05:00:45;7.05;;;3.50;;
69057;SDS011;56128;37.534;-122.308;2022-11-18T05:03:10;6.93;;;3.45;;
69057;SDS011;56128;37.534;-122.308;2022-11-18T05:05:36;8.52;;;3.90;;
69057;SDS011;56128;37.534;-122.308;2022-11-18T05:08:02;6.78;;;3.80;;
69057;SDS011;56128;37.534;-122.308;2022-11-18T05:10:27;10.07;;;3.80;;
69057;SDS011;56128;37.534;-122.308;2022-11-18T05:12:53;7.00;;;3.78;;
69057;SDS011;56128;37.534;-122.308;2022-11-18T05:15:19;9.73;;;3.83;;
69057;SDS011;56128;37.534;-122.308;2022-11-18T05:17:45;8.82;;;3.10;;
69057;SDS011;56128;37.534;-122.308;2022-11-18T05:20:11;5.88;;;3.35;;
69057;SDS011;56128;37.534;-122.308;2022-11-18T05:22:38;5.43;;;2.83;;
69057;SDS011;56128;37.534;-122.308;2022-11-18T05:25:05;5.50;;;3.20;;
69057;SDS011;56128;37.534;-122.308;2022-11-18T05:27:31;5.25;;;3.50;;
69057;SDS011;56128;37.534;-122.308;2022-11-18T05:29:57;7.50;;;3.40;;
69057;SDS011;56128;37.534;-122.308;2022-11-18T05:32:23;6.43;;;3.17;;
69057;SDS011;56128;37.534;-122.308;2022-11-18T05:34:49;6.97;;;3.08;;
69057;SDS011;56128;37.534;-122.308;2022-11-18T05:37:14;6.22;;;2.83;;
69057;SDS011;56128;37.534;-122.308;2022-11-18T05:39:40;5.75;;;3.17;;
69057;SDS011;56128;37.534;-122.308;2022-11-18T05:42:06;7.45;;;3.28;;
69057;SDS011;56128;37.534;-122.308;2022-11-18T05:44:50;6.72;;;2.95;;
69057;SDS011;56128;37.534;-122.308;2022-11-18T05:47:16;5.35;;;3.08;;
69057;SDS011;56128;37.534;-122.308;2022-11-18T05:49:43;5.68;;;2.92;;
69057;SDS011;56128;37.534;-122.308;2022-11-18T05:52:08;6.57;;;3.40;;
69057;SDS011;56128;37.534;-122.308;2022-11-18T05:54:37;7.63;;;3.13;;
69057;SDS011;56128;37.534;-122.308;2022-11-18T05:57:03;5.75;;;2.95;;
69057;SDS011;56128;37.534;-122.308;2022-11-18T05:59:28;7.10;;;3.50;;
69057;SDS011;56128;37.534;-122.308;2022-11-18T06:01:58;6.43;;;3.20;;
69057;SDS011;56128;37.534;-122.308;2022-11-18T06:04:30;6.30;;;2.92;;
69057;SDS011;56128;37.534;-122.308;2022-11-18T06:07:02;10.48;;;3.40;;
69057;SDS011;56128;37.534;-122.308;2022-11-18T06:09:31;7.05;;;3.33;;
69057;SDS011;56128;37.534;-122.308;2022-11-18T06:11:57;6.85;;;3.47;;
69057;SDS011;56128;37.534;-122.308;2022-11-18T06:14:28;9.13;;;3.42;;
69057;SDS011;56128;37.534;-122.308;2022-11-18T06:16:55;5.90;;;3.35;;
69057;SDS011;56128;37.534;-122.308;2022-11-18T06:19:22;7.38;;;3.40;;
69057;SDS011;56128;37.534;-122.308;2022-11-18T06:21:48;8.23;;;3.85;;
69057;SDS011;56128;37.534;-122.308;2022-11-18T06:24:14;6.55;;;3.38;;
69057;SDS011;56128;37.534;-122.308;2022-11-18T06:26:40;6.30;;;3.47;;
69057;SDS011;56128;37.534;-122.308;2022-11-18T06:29:06;6.43;;;3.67;;
69057;SDS011;56128;37.534;-122.308;2022-11-18T06:31:33;6.85;;;4.00;;
69057;SDS011;56128;37.534;-122.308;2022-11-18T06:33:58;7.10;;;3.88;;
69057;SDS011;56128;37.534;-122.308;2022-11-18T06:36:24;6.13;;;3.65;;
69057;SDS011;56128;37.534;-122.308;2022-11-18T06:38:50;7.82;;;3.75;;
69057;SDS011;56128;37.534;-122.308;2022-11-18T06:41:16;9.80;;;3.65;;
69057;SDS011;56128;37.534;-122.308;2022-11-18T06:43:41;10.23;;;3.90;;
69057;SDS011;56128;37.534;-122.308;2022-11-18T06:46:08;8.02;;;4.03;;
69057;SDS011;56128;37.534;-122.308;2022-11-18T06:48:52;7.30;;;3.65;;
69057;SDS011;56128;37.534;-122.308;2022-11-18T06:51:18;10.65;;;4.13;;
69057;SDS011;56128;37.534;-122.308;2022-11-18T06:53:44;12.80;;;3.95;;
69057;SDS011;56128;37.534;-122.308;2022-11-18T06:56:11;9.70;;;4.07;;
69057;SDS011;56128;37.534;-122.308;2022-11-18T06:58:37;7.45;;;4.40;;
69057;SDS011;56128;37.534;-122.308;2022-11-18T07:01:24;7.60;;;4.05;;
69057;SDS011;56128;37.534;-122.308;2022-11-18T07:03:49;9.35;;;4.32;;
69057;SDS011;56128;37.534;-122.308;2022-11-18T07:06:16;11.20;;;4.50;;
69057;SDS011;56128;37.534;-122.308;2022-11-18T07:08:42;13.10;;;4.22;;
69057;SDS011;56128;37.534;-122.308;2022-11-18T07:11:09;9.93;;;4.63;;
69057;SDS011;56128;37.534;-122.308;2022-11-18T07:13:35;10.38;;;3.97;;
69057;SDS011;56128;37.534;-122.308;2022-11-18T07:16:04;8.63;;;3.92;;
69057;SDS011;56128;37.534;-122.308;2022-11-18T07:18:33;9.85;;;4.53;;
69057;SDS011;56128;37.534;-122.308;2022-11-18T07:21:00;8.90;;;4.38;;
69057;SDS011;56128;37.534;-122.308;2022-11-18T07:23:27;8.18;;;4.35;;
69057;SDS011;56128;37.534;-122.308;2022-11-18T07:25:53;6.38;;;4.03;;
69057;SDS011;56128;37.534;-122.308;2022-11-18T07:28:20;7.55;;;4.22;;
69057;SDS011;56128;37.534;-122.308;2022-11-18T07:30:45;9.15;;;4.35;;
69057;SDS011;56128;37.534;-122.308;2022-11-18T07:33:11;9.63;;;4.47;;
69057;SDS011;56128;37.534;-122.308;2022-11-18T07:35:37;8.98;;;4.15;;
69057;SDS011;56128;37.534;-122.308;2022-11-18T07:38:02;7.28;;;3.95;;
69057;SDS011;56128;37.534;-122.308;2022-11-18T07:40:28;12.73;;;4.60;;
69057;SDS011;56128;37.534;-122.308;2022-11-18T07:42:54;9.70;;;4.40;;
69057;SDS011;56128;37.534;-122.308;2022-11-18T07:45:20;8.27;;;4.00;;
69057;SDS011;56128;37.534;-122.308;2022-11-18T07:47:45;10.82;;;4.57;;
69057;SDS011;56128;37.534;-122.308;2022-11-18T07:50:11;10.68;;;4.85;;
69057;SDS011;56128;37.534;-122.308;2022-11-18T07:52:37;10.02;;;4.57;;
69057;SDS011;56128;37.534;-122.308;2022-11-18T07:55:02;8.10;;;4.50;;
69057;SDS011;56128;37.534;-122.308;2022-11-18T07:57:28;10.35;;;5.00;;
69057;SDS011;56128;37.534;-122.308;2022-11-18T07:59:54;6.60;;;4.22;;
69057;SDS011;56128;37.534;-122.308;2022-11-18T08:02:20;10.68;;;4.85;;
69057;SDS011;56128;37.534;-122.308;2022-11-18T08:04:46;9.13;;;4.38;;
69057;SDS011;56128;37.534;-122.308;2022-11-18T08:07:11;10.13;;;4.68;;
69057;SDS011;56128;37.534;-122.308;2022-11-18T08:09:37;10.90;;;4.60;;
69057;SDS011;56128;37.534;-122.308;2022-11-18T08:12:03;13.43;;;5.03;;
69057;SDS011;56128;37.534;-122.308;2022-11-18T08:14:29;8.20;;;4.60;;
69057;SDS011;56128;37.534;-122.308;2022-11-18T08:16:54;12.32;;;4.80;;
69057;SDS011;56128;37.534;-122.308;2022-11-18T08:19:20;6.20;;;4.18;;
69057;SDS011;56128;37.534;-122.308;2022-11-18T08:21:46;8.77;;;4.18;;
69057;SDS011;56128;37.534;-122.308;2022-11-18T08:24:12;11.57;;;4.50;;
69057;SDS011;56128;37.534;-122.308;2022-11-18T08:26:37;11.93;;;4.88;;
69057;SDS011;56128;37.534;-122.308;2022-11-18T08:29:03;9.15;;;4.30;;
69057;SDS011;56128;37.534;-122.308;2022-11-18T08:31:29;12.73;;;4.75;;
69057;SDS011;56128;37.534;-122.308;2022-11-18T08:33:56;12.73;;;4.72;;
69057;SDS011;56128;37.534;-122.308;2022-11-18T08:36:22;11.48;;;5.05;;
69057;SDS011;56128;37.534;-122.308;2022-11-18T08:38:49;13.43;;;5.13;;
69057;SDS011;56128;37.534;-122.308;2022-11-18T08:41:20;13.57;;;5.20;;
69057;SDS011;56128;37.534;-122.308;2022-11-18T08:43:49;10.40;;;4.88;;
69057;SDS011;56128;37.534;-122.308;2022-11-18T08:46:15;9.18;;;4.72;;
69057;SDS011;56128;37.534;-122.308;2022-11-18T08:48:40;10.63;;;5.03;;
69057;SDS011;56128;37.534;-122.308;2022-11-18T08:51:08;10.82;;;4.68;;
69057;SDS011;56128;37.534;-122.308;2022-11-18T08:53:35;13.23;;;5.05;;
69057;SDS011;56128;37.534;-122.308;2022-11-18T08:56:00;12.57;;;5.20;;
69057;SDS011;56128;37.534;-122.308;2022-11-18T08:58:26;10.27;;;4.85;;
69057;SDS011;56128;37.534;-122.308;2022-11-18T09:01:03;10.20;;;4.85;;
69057;SDS011;56128;37.534;-122.308;2022-11-18T09:03:29;8.45;;;5.10;;
69057;SDS011;56128;37.534;-122.308;2022-11-18T09:06:03;7.82;;;4.97;;
69057;SDS011;56128;37.534;-122.308;2022-11-18T09:08:29;13.05;;;4.97;;
69057;SDS011;56128;37.534;-122.308;2022-11-18T09:10:55;12.25;;;5.13;;
69057;SDS011;56128;37.534;-122.308;2022-11-18T09:13:20;15.48;;;5.43;;
69057;SDS011;56128;37.534;-122.308;2022-11-18T09:15:46;13.32;;;5.18;;
69057;SDS011;56128;37.534;-122.308;2022-11-18T09:18:12;12.45;;;5.68;;
69057;SDS011;56128;37.534;-122.308;2022-11-18T09:20:38;9.93;;;5.07;;
69057;SDS011;56128;37.534;-122.308;2022-11-18T09:23:03;10.25;;;5.07;;
69057;SDS011;56128;37.534;-122.308;2022-11-18T09:25:29;11.70;;;5.30;;
69057;SDS011;56128;37.534;-122.308;2022-11-18T09:27:55;14.82;;;6.05;;
69057;SDS011;56128;37.534;-122.308;2022-11-18T09:30:21;12.52;;;4.90;;
69057;SDS011;56128;37.534;-122.308;2022-11-18T09:32:46;11.35;;;4.88;;
69057;SDS011;56128;37.534;-122.308;2022-11-18T09:35:12;12.48;;;4.68;;
69057;SDS011;56128;37.534;-122.308;2022-11-18T09:37:38;13.38;;;5.03;;
69057;SDS011;56128;37.534;-122.308;2022-11-18T09:40:04;11.00;;;4.68;;
69057;SDS011;56128;37.534;-122.308;2022-11-18T09:45:12;11.65;;;4.75;;
69057;SDS011;56128;37.534;-122.308;2022-11-18T09:47:39;9.73;;;5.25;;
69057;SDS011;56128;37.534;-122.308;2022-11-18T09:50:08;11.13;;;5.32;;
69057;SDS011;56128;37.534;-122.308;2022-11-18T09:55:12;11.38;;;5.00;;
69057;SDS011;56128;37.534;-122.308;2022-11-18T09:57:45;12.18;;;5.07;;
69057;SDS011;56128;37.534;-122.308;2022-11-18T10:00:19;8.73;;;4.72;;
69057;SDS011;56128;37.534;-122.308;2022-11-18T10:02:59;11.75;;;4.32;;
69057;SDS011;56128;37.534;-122.308;2022-11-18T10:05:29;9.90;;;4.50;;
69057;SDS011;56128;37.534;-122.308;2022-11-18T10:10:25;10.55;;;4.93;;
69057;SDS011;56128;37.534;-122.308;2022-11-18T10:12:59;10.43;;;5.20;;
69057;SDS011;56128;37.534;-122.308;2022-11-18T10:15:37;10.82;;;5.40;;
69057;SDS011;56128;37.534;-122.308;2022-11-18T10:20:48;12.50;;;4.95;;
69057;SDS011;56128;37.534;-122.308;2022-11-18T10:25:40;12.32;;;4.45;;
69057;SDS011;56128;37.534;-122.308;2022-11-18T10:28:16;13.77;;;4.93;;
69057;SDS011;56128;37.534;-122.308;2022-11-18T10:30:44;10.00;;;5.03;;
69057;SDS011;56128;37.534;-122.308;2022-11-18T10:33:17;11.07;;;5.25;;
69057;SDS011;56128;37.534;-122.308;2022-11-18T10:35:44;15.15;;;5.22;;
69057;SDS011;56128;37.534;-122.308;2022-11-18T10:40:42;13.38;;;5.18;;
69057;SDS011;56128;37.534;-122.308;2022-11-18T10:43:09;10.75;;;5.53;;
69057;SDS011;56128;37.534;-122.308;2022-11-18T10:45:35;15.30;;;5.43;;
69057;SDS011;56128;37.534;-122.308;2022-11-18T10:48:06;13.77;;;5.35;;
69057;SDS011;56128;37.534;-122.308;2022-11-18T10:52:59;14.88;;;5.30;;
69057;SDS011;56128;37.534;-122.308;2022-11-18T10:55:26;14.63;;;5.15;;
69057;SDS011;56128;37.534;-122.308;2022-11-18T10:57:55;13.90;;;5.78;;
69057;SDS011;56128;37.534;-122.308;2022-11-18T11:02:57;11.23;;;5.28;;
69057;SDS011;56128;37.534;-122.308;2022-11-18T11:05:23;17.05;;;5.97;;
69057;SDS011;56128;37.534;-122.308;2022-11-18T11:08:05;13.88;;;5.45;;
69057;SDS011;56128;37.534;-122.308;2022-11-18T11:10:52;13.38;;;5.30;;
69057;SDS011;56128;37.534;-122.308;2022-11-18T11:13:18;12.23;;;5.45;;
69057;SDS011;56128;37.534;-122.308;2022-11-18T11:15:45;17.52;;;6.05;;
69057;SDS011;56128;37.534;-122.308;2022-11-18T11:18:28;17.15;;;6.53;;
69057;SDS011;56128;37.534;-122.308;2022-11-18T11:23:38;13.55;;;5.78;;
69057;SDS011;56128;37.534;-122.308;2022-11-18T11:26:51;15.80;;;6.03;;
69057;SDS011;56128;37.534;-122.308;2022-11-18T11:31:18;15.20;;;6.30;;
69057;SDS011;56128;37.534;-122.308;2022-11-18T11:38:50;20.95;;;7.40;;
69057;SDS011;56128;37.534;-122.308;2022-11-18T11:41:21;15.65;;;6.45;;
69057;SDS011;56128;37.534;-122.308;2022-11-18T11:46:42;20.70;;;6.43;;
69057;SDS011;56128;37.534;-122.308;2022-11-18T11:49:31;18.48;;;7.05;;
69057;SDS011;56128;37.534;-122.308;2022-11-18T11:52:04;15.43;;;6.93;;
69057;SDS011;56128;37.534;-122.308;2022-11-18T11:54:41;21.80;;;7.65;;
69057;SDS011;56128;37.534;-122.308;2022-11-18T11:59:43;17.65;;;6.97;;
69057;SDS011;56128;37.534;-122.308;2022-11-18T12:04:51;18.92;;;8.18;;
69057;SDS011;56128;37.534;-122.308;2022-11-18T12:07:19;20.77;;;7.45;;
69057;SDS011;56128;37.534;-122.308;2022-11-18T12:15:16;24.20;;;7.43;;
69057;SDS011;56128;37.534;-122.308;2022-11-18T12:17:54;16.63;;;7.43;;
69057;SDS011;56128;37.534;-122.308;2022-11-18T12:20:34;22.92;;;7.85;;
69057;SDS011;56128;37.534;-122.308;2022-11-18T12:23:16;17.95;;;7.55;;
69057;SDS011;56128;37.534;-122.308;2022-11-18T12:36:08;21.27;;;7.38;;
69057;SDS011;56128;37.534;-122.308;2022-11-18T12:38:34;16.42;;;7.15;;
69057;SDS011;56128;37.534;-122.308;2022-11-18T12:41:00;20.73;;;8.00;;
69057;SDS011;56128;37.534;-122.308;2022-11-18T12:47:12;19.17;;;7.57;;
69057;SDS011;56128;37.534;-122.308;2022-11-18T12:51:52;22.02;;;7.97;;
69057;SDS011;56128;37.534;-122.308;2022-11-18T12:54:35;24.67;;;8.60;;
69057;SDS011;56128;37.534;-122.308;2022-11-18T12:59:32;24.92;;;8.50;;
69057;SDS011;56128;37.534;-122.308;2022-11-18T13:02:03;20.60;;;7.82;;
69057;SDS011;56128;37.534;-122.308;2022-11-18T13:04:29;22.40;;;7.65;;
69057;SDS011;56128;37.534;-122.308;2022-11-18T13:06:54;27.48;;;8.65;;
69057;SDS011;56128;37.534;-122.308;2022-11-18T13:09:24;21.73;;;7.47;;
69057;SDS011;56128;37.534;-122.308;2022-11-18T13:14:22;20.55;;;8.35;;
69057;SDS011;56128;37.534;-122.308;2022-11-18T13:22:37;22.83;;;7.93;;
69057;SDS011;56128;37.534;-122.308;2022-11-18T13:28:11;16.17;;;7.05;;
69057;SDS011;56128;37.534;-122.308;2022-11-18T13:33:08;21.50;;;7.57;;
69057;SDS011;56128;37.534;-122.308;2022-11-18T13:35:35;17.95;;;8.30;;
69057;SDS011;56128;37.534;-122.308;2022-11-18T13:38:04;17.52;;;8.32;;
69057;SDS011;56128;37.534;-122.308;2022-11-18T13:41:05;21.67;;;8.23;;
69057;SDS011;56128;37.534;-122.308;2022-11-18T13:43:33;20.08;;;7.63;;
69057;SDS011;56128;37.534;-122.308;2022-11-18T13:45:59;24.05;;;8.35;;
69057;SDS011;56128;37.534;-122.308;2022-11-18T13:48:26;22.60;;;9.02;;
69057;SDS011;56128;37.534;-122.308;2022-11-18T13:50:56;19.15;;;8.57;;
69057;SDS011;56128;37.534;-122.308;2022-11-18T13:53:32;22.50;;;8.32;;
69057;SDS011;56128;37.534;-122.308;2022-11-18T13:56:00;21.10;;;8.98;;
69057;SDS011;56128;37.534;-122.308;2022-11-18T13:58:32;16.42;;;7.80;;
69057;SDS011;56128;37.534;-122.308;2022-11-18T14:00:59;22.75;;;8.32;;
69057;SDS011;56128;37.534;-122.308;2022-11-18T14:05:54;20.80;;;8.65;;
69057;SDS011;56128;37.534;-122.308;2022-11-18T14:09:01;21.77;;;8.35;;
69057;SDS011;56128;37.534;-122.308;2022-11-18T14:11:11;18.65;;;8.30;;
69057;SDS011;56128;37.534;-122.308;2022-11-18T14:13:47;17.60;;;7.93;;
69057;SDS011;56128;37.534;-122.308;2022-11-18T14:18:47;19.88;;;8.02;;
69057;SDS011;56128;37.534;-122.308;2022-11-18T14:21:13;19.75;;;8.30;;
69057;SDS011;56128;37.534;-122.308;2022-11-18T14:23:50;19.45;;;7.60;;
69057;SDS011;56128;37.534;-122.308;2022-11-18T14:26:25;14.02;;;7.55;;
69057;SDS011;56128;37.534;-122.308;2022-11-18T14:28:55;16.08;;;7.25;;
69057;SDS011;56128;37.534;-122.308;2022-11-18T14:31:22;17.73;;;6.80;;
69057;SDS011;56128;37.534;-122.308;2022-11-18T14:36:32;25.45;;;8.15;;
69057;SDS011;56128;37.534;-122.308;2022-11-18T14:38:58;17.83;;;7.60;;
69057;SDS011;56128;37.534;-122.308;2022-11-18T14:41:24;18.33;;;7.75;;
69057;SDS011;56128;37.534;-122.308;2022-11-18T14:46:36;14.57;;;5.85;;
69057;SDS011;56128;37.534;-122.308;2022-11-18T14:49:03;20.48;;;7.32;;
69057;SDS011;56128;37.534;-122.308;2022-11-18T14:51:29;18.02;;;6.95;;
69057;SDS011;56128;37.534;-122.308;2022-11-18T14:53:55;18.58;;;7.50;;
69057;SDS011;56128;37.534;-122.308;2022-11-18T14:56:28;19.33;;;7.45;;
69057;SDS011;56128;37.534;-122.308;2022-11-18T14:58:54;19.40;;;7.75;;
69057;SDS011;56128;37.534;-122.308;2022-11-18T15:01:20;25.77;;;7.70;;
69057;SDS011;56128;37.534;-122.308;2022-11-18T15:03:46;13.77;;;6.63;;
69057;SDS011;56128;37.534;-122.308;2022-11-18T15:06:32;24.58;;;8.02;;
69057;SDS011;56128;37.534;-122.308;2022-11-18T15:08:58;18.98;;;7.63;;
69057;SDS011;56128;37.534;-122.308;2022-11-18T15:11:23;21.38;;;7.85;;
69057;SDS011;56128;37.534;-122.308;2022-11-18T15:13:49;15.95;;;7.68;;
69057;SDS011;56128;37.534;-122.308;2022-11-18T15:16:19;23.13;;;7.70;;
69057;SDS011;56128;37.534;-122.308;2022-11-18T15:18:46;20.52;;;8.02;;
69057;SDS011;56128;37.534;-122.308;2022-11-18T15:21:12;15.25;;;7.22;;
69057;SDS011;56128;37.534;-122.308;2022-11-18T15:23:38;23.17;;;7.90;;
69057;SDS011;56128;37.534;-122.308;2022-11-18T15:26:38;20.77;;;7.88;;
69057;SDS011;56128;37.534;-122.308;2022-11-18T15:28:57;18.90;;;8.35;;
69057;SDS011;56128;37.534;-122.308;2022-11-18T15:31:23;18.48;;;8.73;;
69057;SDS011;56128;37.534;-122.308;2022-11-18T15:33:49;20.20;;;8.65;;
69057;SDS011;56128;37.534;-122.308;2022-11-18T15:36:17;21.58;;;8.52;;
69057;SDS011;56128;37.534;-122.308;2022-11-18T15:38:42;24.10;;;8.75;;
69057;SDS011;56128;37.534;-122.308;2022-11-18T15:41:15;19.65;;;8.65;;
69057;SDS011;56128;37.534;-122.308;2022-11-18T15:43:42;20.55;;;8.63;;
69057;SDS011;56128;37.534;-122.308;2022-11-18T15:46:07;25.80;;;9.60;;
69057;SDS011;56128;37.534;-122.308;2022-11-18T15:48:34;22.02;;;8.77;;
69057;SDS011;56128;37.534;-122.308;2022-11-18T15:50:59;20.48;;;9.80;;
69057;SDS011;56128;37.534;-122.308;2022-11-18T15:53:25;28.48;;;9.52;;
69057;SDS011;56128;37.534;-122.308;2022-11-18T15:55:51;20.92;;;9.25;;
69057;SDS011;56128;37.534;-122.308;2022-11-18T15:58:17;25.33;;;9.70;;